الصفحة الرئيسية
METAR-TAF:

METAR-TAF

مطار :

كيميروفو, روسيا

دائرة عرض: 55-19-48N, خط طول: 086-04-48E, ارتفاع: 260 متر

مراقبة الطقس الحالي

تاريخ ووقت الإصدار 28 دقيقة قبل الساعة 01:00UTC
ريح 10 عقدة من الجنوب
درجة الحرارة 0°درجة مئوية
الرطوبة 100%
ضغط 1020 hPa
الرؤية 10 كم أو أكثر
الغيوم لا تقل 1500 م ولا وجود لمزنة ركامية السحاب الأسود

METAR: UNEE 170100Z 18005MPS CAVOK 00/M00 Q1020 R23/190055 NOSIG RMK QFE742

زمن: 08:28 (01:28 UTC)

توقعات

تاريخ ووقت الإصدار 2ساعات و 28 دقيقة قبل الساعة 23:00UTC
التوقعات صالحة من17 الساعة 00 UTC إلى 17 الساعة 24 UTC
ريح 6 عقدة من الجنوب تتزايد حتى 16 عقدة
الرؤية 10 كم أو أكثر
غيوم مفككة على ارتفاع 2000 قدم

TAF: UNEE 162300Z 1700/1724 19003G08MPS 9999 BKN020

أرصاد الطقس والتوقعات من أكثر من 4000 مطار (تقارير الطقس للمطار METAR والتنبؤ بالطقس بالمطارTAF).

المحطات المتاحة هي النقط الصفراء والحمراء على الخريطة.

حرك المؤشر فوق النقطة لمعرفة اسم المحطة.

ثم انقر لمعرفة أرصاد وتوقعات الطقس.

لتغيير الخارطة: اضغط على الأزرار الخضراء مع رمز الصليب الأسود للتكبير. على الزر الأخضر مع شرطة للتصغير، أو على الأسهم الخضراء للخرائط المجاورة.


METAR-TAF: